sensor_id;sensor_type;location;lat;lon;timestamp;pressure;altitude;pressure_sealevel;temperature;humidity
55733;BME280;41637;52.364;9.910;2022-10-31T15:15:44;101116.40;;;18.13;71.32
55733;BME280;41637;52.364;9.910;2022-10-31T15:18:26;101117.84;;;17.90;72.36
55733;BME280;41637;52.364;9.910;2022-10-31T15:20:54;101107.73;;;17.68;72.75
55733;BME280;41637;52.364;9.910;2022-10-31T15:23:25;101108.73;;;17.53;73.53
55733;BME280;41637;52.364;9.910;2022-10-31T15:26:00;101103.48;;;17.37;74.19
55733;BME280;41637;52.364;9.910;2022-10-31T15:28:28;101098.99;;;17.20;74.75
55733;BME280;41637;52.364;9.910;2022-10-31T15:31:00;101092.91;;;17.01;75.80
55733;BME280;41637;52.364;9.910;2022-10-31T15:33:38;101085.73;;;16.82;76.19
55733;BME280;41637;52.364;9.910;2022-10-31T15:36:24;101085.59;;;16.62;76.98
55733;BME280;41637;52.364;9.910;2022-10-31T15:38:57;101083.64;;;16.45;77.70
55733;BME280;41637;52.364;9.910;2022-10-31T15:41:32;101079.13;;;16.30;78.42
55733;BME280;41637;52.364;9.910;2022-10-31T15:44:04;101078.11;;;16.18;79.09
55733;BME280;41637;52.364;9.910;2022-10-31T15:46:33;101079.66;;;16.06;79.54
55733;BME280;41637;52.364;9.910;2022-10-31T15:49:00;101073.98;;;15.94;80.18
55733;BME280;41637;52.364;9.910;2022-10-31T15:51:32;101068.33;;;15.81;80.97
55733;BME280;41637;52.364;9.910;2022-10-31T15:54:00;101059.31;;;15.68;81.56
55733;BME280;41637;52.364;9.910;2022-10-31T15:56:30;101060.88;;;15.57;82.15
55733;BME280;41637;52.364;9.910;2022-10-31T15:58:58;101053.69;;;15.48;82.63
55733;BME280;41637;52.364;9.910;2022-10-31T16:01:31;101050.84;;;15.40;83.48
55733;BME280;41637;52.364;9.910;2022-10-31T16:06:28;101042.98;;;15.22;85.09
55733;BME280;41637;52.364;9.910;2022-10-31T16:08:54;101043.98;;;15.14;85.48
55733;BME280;41637;52.364;9.910;2022-10-31T16:11:39;101041.09;;;15.08;86.49
55733;BME280;41637;52.364;9.910;2022-10-31T16:16:42;101049.81;;;14.97;87.32
55733;BME280;41637;52.364;9.910;2022-10-31T16:19:17;101051.05;;;14.93;87.59
55733;BME280;41637;52.364;9.910;2022-10-31T16:21:47;101047.13;;;14.90;88.19
55733;BME280;41637;52.364;9.910;2022-10-31T16:24:17;101051.89;;;14.89;88.41
55733;BME280;41637;52.364;9.910;2022-10-31T16:26:51;101052.91;;;14.87;88.84
55733;BME280;41637;52.364;9.910;2022-10-31T16:29:32;101056.89;;;14.85;89.31
55733;BME280;41637;52.364;9.910;2022-10-31T16:31:58;101053.28;;;14.83;89.82
55733;BME280;41637;52.364;9.910;2022-10-31T16:34:25;101049.85;;;14.80;90.04
55733;BME280;41637;52.364;9.910;2022-10-31T16:36:52;101045.00;;;14.79;90.24
55733;BME280;41637;52.364;9.910;2022-10-31T16:39:19;101040.63;;;14.79;90.48
55733;BME280;41637;52.364;9.910;2022-10-31T16:41:50;101043.63;;;14.79;90.36
55733;BME280;41637;52.364;9.910;2022-10-31T16:44:23;101040.40;;;14.79;90.57
55733;BME280;41637;52.364;9.910;2022-10-31T16:49:32;101039.46;;;14.81;90.52
55733;BME280;41637;52.364;9.910;2022-10-31T16:51:58;101037.24;;;14.81;90.78
55733;BME280;41637;52.364;9.910;2022-10-31T16:54:25;101035.69;;;14.81;90.84
55733;BME280;41637;52.364;9.910;2022-10-31T16:56:51;101029.30;;;14.81;90.84
55733;BME280;41637;52.364;9.910;2022-10-31T16:59:17;101024.64;;;14.81;91.08
55733;BME280;41637;52.364;9.910;2022-10-31T17:01:47;101029.09;;;14.81;91.36
55733;BME280;41637;52.364;9.910;2022-10-31T17:04:15;101029.30;;;14.80;91.50
55733;BME280;41637;52.364;9.910;2022-10-31T17:06:41;101027.90;;;14.79;91.49
55733;BME280;41637;52.364;9.910;2022-10-31T17:09:08;101024.73;;;14.78;91.70
55733;BME280;41637;52.364;9.910;2022-10-31T17:11:35;101022.25;;;14.76;91.62
55733;BME280;41637;52.364;9.910;2022-10-31T17:14:03;101021.63;;;14.75;91.90
55733;BME280;41637;52.364;9.910;2022-10-31T17:16:30;101012.61;;;14.74;91.73
55733;BME280;41637;52.364;9.910;2022-10-31T17:18:56;101009.80;;;14.73;91.77
55733;BME280;41637;52.364;9.910;2022-10-31T17:21:23;101011.01;;;14.72;92.02
55733;BME280;41637;52.364;9.910;2022-10-31T17:23:51;101005.09;;;14.71;92.12
55733;BME280;41637;52.364;9.910;2022-10-31T17:26:18;101005.29;;;14.70;92.17
55733;BME280;41637;52.364;9.910;2022-10-31T17:28:45;101009.30;;;14.68;92.30
55733;BME280;41637;52.364;9.910;2022-10-31T17:31:22;101007.31;;;14.67;92.42
55733;BME280;41637;52.364;9.910;2022-10-31T17:33:49;101003.05;;;14.67;92.24
55733;BME280;41637;52.364;9.910;2022-10-31T17:36:16;100999.55;;;14.67;92.45
55733;BME280;41637;52.364;9.910;2022-10-31T17:38:42;100999.00;;;14.65;92.46
55733;BME280;41637;52.364;9.910;2022-10-31T17:41:09;100999.41;;;14.64;92.85
55733;BME280;41637;52.364;9.910;2022-10-31T17:43:37;100989.46;;;14.62;92.84
55733;BME280;41637;52.364;9.910;2022-10-31T17:46:04;100986.81;;;14.60;92.90
55733;BME280;41637;52.364;9.910;2022-10-31T17:48:33;100987.39;;;14.60;92.94
55733;BME280;41637;52.364;9.910;2022-10-31T17:51:01;100987.88;;;14.60;92.97
55733;BME280;41637;52.364;9.910;2022-10-31T17:53:32;100991.05;;;14.61;92.87
55733;BME280;41637;52.364;9.910;2022-10-31T17:56:04;100993.95;;;14.60;93.06
55733;BME280;41637;52.364;9.910;2022-10-31T17:58:31;100992.51;;;14.59;93.25
55733;BME280;41637;52.364;9.910;2022-10-31T18:01:00;100994.97;;;14.59;93.45
55733;BME280;41637;52.364;9.910;2022-10-31T18:03:26;100989.80;;;14.59;93.54
55733;BME280;41637;52.364;9.910;2022-10-31T18:05:55;100990.71;;;14.61;93.72
55733;BME280;41637;52.364;9.910;2022-10-31T18:08:27;100987.68;;;14.62;93.88
55733;BME280;41637;52.364;9.910;2022-10-31T18:10:54;100985.11;;;14.64;94.12
55733;BME280;41637;52.364;9.910;2022-10-31T18:13:21;100975.27;;;14.66;94.17
55733;BME280;41637;52.364;9.910;2022-10-31T18:15:48;100966.23;;;14.67;94.09
55733;BME280;41637;52.364;9.910;2022-10-31T18:18:14;100958.70;;;14.69;94.45
55733;BME280;41637;52.364;9.910;2022-10-31T18:20:41;100958.41;;;14.70;94.38
55733;BME280;41637;52.364;9.910;2022-10-31T18:23:08;100950.80;;;14.70;94.27
55733;BME280;41637;52.364;9.910;2022-10-31T18:25:34;100950.77;;;14.68;94.58
55733;BME280;41637;52.364;9.910;2022-10-31T18:28:04;100951.65;;;14.67;94.64
55733;BME280;41637;52.364;9.910;2022-10-31T18:30:32;100949.96;;;14.66;94.99
55733;BME280;41637;52.364;9.910;2022-10-31T18:32:58;100948.92;;;14.64;95.48
55733;BME280;41637;52.364;9.910;2022-10-31T18:35:25;100948.14;;;14.62;95.72
55733;BME280;41637;52.364;9.910;2022-10-31T18:37:51;100946.89;;;14.61;95.85
55733;BME280;41637;52.364;9.910;2022-10-31T18:40:18;100945.48;;;14.60;96.26
55733;BME280;41637;52.364;9.910;2022-10-31T18:42:44;100949.58;;;14.58;96.46
55733;BME280;41637;52.364;9.910;2022-10-31T18:45:11;100948.28;;;14.55;97.10
55733;BME280;41637;52.364;9.910;2022-10-31T18:47:57;100948.14;;;14.51;97.64
55733;BME280;41637;52.364;9.910;2022-10-31T18:50:24;100944.43;;;14.49;97.52
55733;BME280;41637;52.364;9.910;2022-10-31T18:52:51;100926.69;;;14.49;97.26
55733;BME280;41637;52.364;9.910;2022-10-31T18:55:17;100920.77;;;14.48;97.41
55733;BME280;41637;52.364;9.910;2022-10-31T18:57:44;100926.13;;;14.45;97.87
55733;BME280;41637;52.364;9.910;2022-10-31T19:00:12;100924.97;;;14.42;98.51
55733;BME280;41637;52.364;9.910;2022-10-31T19:02:43;100929.23;;;14.40;98.32
55733;BME280;41637;52.364;9.910;2022-10-31T19:05:09;100928.57;;;14.40;98.52
55733;BME280;41637;52.364;9.910;2022-10-31T19:07:35;100929.86;;;14.38;98.86
55733;BME280;41637;52.364;9.910;2022-10-31T19:10:02;100928.92;;;14.38;98.63
55733;BME280;41637;52.364;9.910;2022-10-31T19:12:31;100924.52;;;14.38;98.53
55733;BME280;41637;52.364;9.910;2022-10-31T19:14:58;100918.00;;;14.39;98.61
55733;BME280;41637;52.364;9.910;2022-10-31T19:17:24;100919.31;;;14.40;98.67
55733;BME280;41637;52.364;9.910;2022-10-31T19:19:51;100920.98;;;14.41;98.92
55733;BME280;41637;52.364;9.910;2022-10-31T19:22:17;100915.89;;;14.40;99.16
55733;BME280;41637;52.364;9.910;2022-10-31T19:24:44;100907.38;;;14.40;99.39
55733;BME280;41637;52.364;9.910;2022-10-31T19:27:10;100904.57;;;14.38;99.69
55733;BME280;41637;52.364;9.910;2022-10-31T19:29:37;100904.82;;;14.39;99.91
55733;BME280;41637;52.364;9.910;2022-10-31T19:32:05;100907.28;;;14.39;99.99
55733;BME280;41637;52.364;9.910;2022-10-31T19:34:31;100908.55;;;14.39;99.93
55733;BME280;41637;52.364;9.910;2022-10-31T19:36:58;100900.42;;;14.38;99.98
55733;BME280;41637;52.364;9.910;2022-10-31T19:39:24;100895.46;;;14.40;99.95
55733;BME280;41637;52.364;9.910;2022-10-31T19:41:51;100895.56;;;14.41;99.97
55733;BME280;41637;52.364;9.910;2022-10-31T19:44:17;100885.96;;;14.37;99.98
55733;BME280;41637;52.364;9.910;2022-10-31T19:46:44;100880.14;;;14.33;99.97
55733;BME280;41637;52.364;9.910;2022-10-31T19:49:20;100877.81;;;14.27;100.00
55733;BME280;41637;52.364;9.910;2022-10-31T19:51:46;100875.41;;;14.24;100.00
55733;BME280;41637;52.364;9.910;2022-10-31T19:54:13;100866.02;;;14.20;100.00
55733;BME280;41637;52.364;9.910;2022-10-31T19:56:40;100866.73;;;14.18;100.00
55733;BME280;41637;52.364;9.910;2022-10-31T19:59:06;100851.87;;;14.15;100.00
55733;BME280;41637;52.364;9.910;2022-10-31T20:01:33;100839.27;;;14.10;100.00
55733;BME280;41637;52.364;9.910;2022-10-31T20:04:00;100831.84;;;14.04;100.00
55733;BME280;41637;52.364;9.910;2022-10-31T20:06:35;100825.04;;;14.00;100.00
55733;BME280;41637;52.364;9.910;2022-10-31T20:09:05;100823.98;;;13.96;100.00
55733;BME280;41637;52.364;9.910;2022-10-31T20:11:35;100823.55;;;13.93;100.00
55733;BME280;41637;52.364;9.910;2022-10-31T20:14:02;100820.61;;;13.89;100.00
55733;BME280;41637;52.364;9.910;2022-10-31T20:16:29;100823.38;;;13.86;100.00
55733;BME280;41637;52.364;9.910;2022-10-31T20:18:55;100829.77;;;13.85;100.00
55733;BME280;41637;52.364;9.910;2022-10-31T20:21:29;100828.45;;;13.84;100.00
55733;BME280;41637;52.364;9.910;2022-10-31T20:23:58;100825.04;;;13.83;100.00
55733;BME280;41637;52.364;9.910;2022-10-31T20:26:27;100815.88;;;13.81;100.00
55733;BME280;41637;52.364;9.910;2022-10-31T20:28:55;100808.27;;;13.79;100.00
55733;BME280;41637;52.364;9.910;2022-10-31T20:31:24;100806.33;;;13.77;100.00
55733;BME280;41637;52.364;9.910;2022-10-31T20:33:51;100798.52;;;13.76;100.00
55733;BME280;41637;52.364;9.910;2022-10-31T20:36:18;100795.79;;;13.77;100.00
55733;BME280;41637;52.364;9.910;2022-10-31T20:38:50;100793.33;;;13.78;100.00
55733;BME280;41637;52.364;9.910;2022-10-31T20:41:17;100791.11;;;13.79;100.00
55733;BME280;41637;52.364;9.910;2022-10-31T20:43:44;100792.11;;;13.81;100.00
55733;BME280;41637;52.364;9.910;2022-10-31T20:46:19;100779.81;;;13.81;100.00
55733;BME280;41637;52.364;9.910;2022-10-31T20:48:46;100770.58;;;13.85;100.00
55733;BME280;41637;52.364;9.910;2022-10-31T20:51:19;100767.05;;;13.88;100.00
55733;BME280;41637;52.364;9.910;2022-10-31T20:53:50;100770.70;;;13.91;100.00
55733;BME280;41637;52.364;9.910;2022-10-31T20:56:18;100773.27;;;13.95;100.00
55733;BME280;41637;52.364;9.910;2022-10-31T20:58:46;100787.85;;;13.98;100.00
55733;BME280;41637;52.364;9.910;2022-10-31T21:01:21;100798.89;;;13.99;100.00
55733;BME280;41637;52.364;9.910;2022-10-31T21:03:49;100808.65;;;14.02;100.00
55733;BME280;41637;52.364;9.910;2022-10-31T21:06:17;100811.02;;;14.02;100.00
55733;BME280;41637;52.364;9.910;2022-10-31T21:08:44;100811.95;;;14.00;100.00
55733;BME280;41637;52.364;9.910;2022-10-31T21:11:13;100806.30;;;14.01;100.00
55733;BME280;41637;52.364;9.910;2022-10-31T21:13:43;100793.16;;;14.01;100.00
55733;BME280;41637;52.364;9.910;2022-10-31T21:16:19;100791.80;;;14.00;100.00
55733;BME280;41637;52.364;9.910;2022-10-31T21:18:47;100798.70;;;13.99;100.00
55733;BME280;41637;52.364;9.910;2022-10-31T21:21:20;100804.45;;;14.00;100.00
55733;BME280;41637;52.364;9.910;2022-10-31T21:23:47;100795.67;;;14.02;100.00
55733;BME280;41637;52.364;9.910;2022-10-31T21:26:21;100783.00;;;14.02;100.00
55733;BME280;41637;52.364;9.910;2022-10-31T21:28:49;100775.52;;;14.01;100.00
55733;BME280;41637;52.364;9.910;2022-10-31T21:31:17;100773.30;;;13.99;100.00
55733;BME280;41637;52.364;9.910;2022-10-31T21:33:44;100784.07;;;13.97;100.00
55733;BME280;41637;52.364;9.910;2022-10-31T21:36:12;100784.12;;;13.96;100.00
55733;BME280;41637;52.364;9.910;2022-10-31T21:38:39;100785.83;;;13.95;100.00
55733;BME280;41637;52.364;9.910;2022-10-31T21:41:09;100779.58;;;13.94;100.00
55733;BME280;41637;52.364;9.910;2022-10-31T21:43:38;100778.19;;;13.94;100.00
55733;BME280;41637;52.364;9.910;2022-10-31T21:46:10;100772.34;;;13.93;100.00
55733;BME280;41637;52.364;9.910;2022-10-31T21:48:39;100768.23;;;13.90;100.00
55733;BME280;41637;52.364;9.910;2022-10-31T21:51:09;100760.91;;;13.87;100.00
55733;BME280;41637;52.364;9.910;2022-10-31T21:53:36;100755.88;;;13.84;100.00
55733;BME280;41637;52.364;9.910;2022-10-31T21:56:23;100746.98;;;13.79;100.00
55733;BME280;41637;52.364;9.910;2022-10-31T21:58:50;100739.02;;;13.78;100.00
55733;BME280;41637;52.364;9.910;2022-10-31T22:01:17;100731.79;;;13.70;100.00
55733;BME280;41637;52.364;9.910;2022-10-31T22:03:45;100731.12;;;13.63;100.00
55733;BME280;41637;52.364;9.910;2022-10-31T22:06:12;100731.30;;;13.54;100.00
55733;BME280;41637;52.364;9.910;2022-10-31T22:08:40;100733.52;;;13.48;100.00
55733;BME280;41637;52.364;9.910;2022-10-31T22:11:09;100740.95;;;13.39;100.00
55733;BME280;41637;52.364;9.910;2022-10-31T22:13:40;100734.27;;;13.35;100.00
55733;BME280;41637;52.364;9.910;2022-10-31T22:16:15;100736.27;;;13.30;100.00
55733;BME280;41637;52.364;9.910;2022-10-31T22:18:43;100742.77;;;13.26;100.00
55733;BME280;41637;52.364;9.910;2022-10-31T22:21:16;100740.68;;;13.21;100.00
55733;BME280;41637;52.364;9.910;2022-10-31T22:23:43;100733.33;;;13.16;100.00
55733;BME280;41637;52.364;9.910;2022-10-31T22:26:13;100725.06;;;13.13;100.00
55733;BME280;41637;52.364;9.910;2022-10-31T22:28:46;100725.07;;;13.09;100.00
55733;BME280;41637;52.364;9.910;2022-10-31T22:31:15;100729.48;;;13.04;100.00
55733;BME280;41637;52.364;9.910;2022-10-31T22:33:44;100726.31;;;12.98;100.00
55733;BME280;41637;52.364;9.910;2022-10-31T22:36:16;100723.56;;;12.93;100.00
55733;BME280;41637;52.364;9.910;2022-10-31T22:38:46;100720.77;;;12.89;100.00
55733;BME280;41637;52.364;9.910;2022-10-31T22:41:15;100722.58;;;12.87;100.00
55733;BME280;41637;52.364;9.910;2022-10-31T22:43:42;100712.79;;;12.85;100.00
55733;BME280;41637;52.364;9.910;2022-10-31T22:46:15;100710.04;;;12.85;100.00
55733;BME280;41637;52.364;9.910;2022-10-31T22:48:50;100709.71;;;12.85;100.00
55733;BME280;41637;52.364;9.910;2022-10-31T22:51:19;100705.29;;;12.83;100.00
55733;BME280;41637;52.364;9.910;2022-10-31T22:53:49;100705.80;;;12.82;100.00
55733;BME280;41637;52.364;9.910;2022-10-31T22:56:19;100700.37;;;12.79;100.00
55733;BME280;41637;52.364;9.910;2022-10-31T22:58:46;100696.46;;;12.74;100.00
55733;BME280;41637;52.364;9.910;2022-10-31T23:01:16;100691.38;;;12.70;100.00
55733;BME280;41637;52.364;9.910;2022-10-31T23:03:43;100694.19;;;12.64;100.00
55733;BME280;41637;52.364;9.910;2022-10-31T23:06:13;100699.16;;;12.58;100.00
55733;BME280;41637;52.364;9.910;2022-10-31T23:08:40;100695.48;;;12.55;100.00
55733;BME280;41637;52.364;9.910;2022-10-31T23:11:19;100697.54;;;12.52;100.00
55733;BME280;41637;52.364;9.910;2022-10-31T23:13:49;100701.98;;;12.51;100.00
55733;BME280;41637;52.364;9.910;2022-10-31T23:16:43;100704.88;;;12.49;100.00
55733;BME280;41637;52.364;9.910;2022-10-31T23:19:16;100699.46;;;12.48;100.00
55733;BME280;41637;52.364;9.910;2022-10-31T23:21:52;100699.77;;;12.47;100.00
55733;BME280;41637;52.364;9.910;2022-10-31T23:24:38;100703.60;;;12.48;100.00
55733;BME280;41637;52.364;9.910;2022-10-31T23:27:16;100709.23;;;12.48;100.00
55733;BME280;41637;52.364;9.910;2022-10-31T23:29:51;100702.64;;;12.50;100.00
55733;BME280;41637;52.364;9.910;2022-10-31T23:32:33;100697.58;;;12.52;100.00
55733;BME280;41637;52.364;9.910;2022-10-31T23:35:04;100690.52;;;12.55;100.00
55733;BME280;41637;52.364;9.910;2022-10-31T23:37:35;100688.73;;;12.55;100.00
55733;BME280;41637;52.364;9.910;2022-10-31T23:40:03;100683.42;;;12.53;100.00
55733;BME280;41637;52.364;9.910;2022-10-31T23:42:30;100687.95;;;12.52;100.00
55733;BME280;41637;52.364;9.910;2022-10-31T23:44:56;100679.98;;;12.51;100.00
55733;BME280;41637;52.364;9.910;2022-10-31T23:47:23;100672.41;;;12.49;100.00
55733;BME280;41637;52.364;9.910;2022-10-31T23:49:50;100666.90;;;12.46;100.00
55733;BME280;41637;52.364;9.910;2022-10-31T23:52:17;100667.91;;;12.42;100.00
55733;BME280;41637;52.364;9.910;2022-10-31T23:54:44;100664.70;;;12.38;100.00
55733;BME280;41637;52.364;9.910;2022-10-31T23:57:12;100664.27;;;12.36;100.00
55733;BME280;41637;52.364;9.910;2022-10-31T23:59:39;100662.86;;;12.33;100.00
